createdAt,value
2022-10-17T00:01:24.695Z,80.55
2022-10-17T00:03:52.810Z,81.20
2022-10-17T00:06:20.796Z,80.79
2022-10-17T00:08:48.892Z,81.10
2022-10-17T00:11:19.929Z,81.35
2022-10-17T00:13:49.708Z,81.01
2022-10-17T00:16:24.335Z,81.68
2022-10-17T00:18:52.345Z,80.95
2022-10-17T00:21:21.055Z,81.10
2022-10-17T00:23:49.395Z,81.46
2022-10-17T00:26:19.233Z,82.04
2022-10-17T00:28:47.832Z,81.93
2022-10-17T00:31:18.113Z,82.38
2022-10-17T00:33:46.172Z,82.40
2022-10-17T00:36:18.502Z,82.10
2022-10-17T00:38:48.199Z,82.09
2022-10-17T00:41:19.560Z,81.28
2022-10-17T00:43:55.040Z,82.06
2022-10-17T00:46:24.860Z,82.21
2022-10-17T00:48:55.228Z,81.96
2022-10-17T00:51:27.827Z,81.19
2022-10-17T00:53:55.892Z,81.22
2022-10-17T00:56:25.682Z,81.61
2022-10-17T00:58:53.772Z,81.87
2022-10-17T01:01:21.808Z,81.72
2022-10-17T01:03:52.790Z,81.73
2022-10-17T01:06:20.904Z,82.23
2022-10-17T01:08:48.895Z,82.75
2022-10-17T01:11:27.532Z,82.67
2022-10-17T01:13:58.663Z,82.62
2022-10-17T01:16:34.178Z,82.98
2022-10-17T01:19:07.533Z,83.27
2022-10-17T01:21:43.419Z,83.87
2022-10-17T01:24:44.018Z,83.72
2022-10-17T01:27:50.365Z,83.20
2022-10-17T01:30:51.600Z,83.51
2022-10-17T01:33:28.991Z,83.07
2022-10-17T01:36:03.274Z,83.55
2022-10-17T01:38:36.697Z,83.86
2022-10-17T01:41:07.620Z,83.25
2022-10-17T01:43:40.454Z,83.92
2022-10-17T01:46:12.718Z,84.05
2022-10-17T01:48:44.396Z,84.00
2022-10-17T01:51:16.958Z,84.48
2022-10-17T01:53:50.740Z,84.45
2022-10-17T01:56:21.085Z,84.27
2022-10-17T01:58:52.318Z,83.85
2022-10-17T02:01:21.032Z,83.57
2022-10-17T02:03:50.948Z,83.47
2022-10-17T02:06:19.036Z,83.62
2022-10-17T02:08:48.688Z,84.07
2022-10-17T02:11:19.674Z,83.71
2022-10-17T02:14:03.892Z,84.50
2022-10-17T02:16:36.973Z,84.51
2022-10-17T02:19:23.727Z,84.67
2022-10-17T02:21:57.220Z,84.54
2022-10-17T02:24:32.157Z,84.01
2022-10-17T02:27:04.904Z,83.70
2022-10-17T02:29:38.005Z,83.80
2022-10-17T02:32:09.721Z,83.65
2022-10-17T02:34:41.978Z,84.12
2022-10-17T02:37:12.831Z,83.68
2022-10-17T02:39:41.315Z,83.79
2022-10-17T02:42:12.480Z,84.11
2022-10-17T02:44:43.020Z,83.96
2022-10-17T02:47:14.425Z,83.64
2022-10-17T02:49:48.575Z,84.00
2022-10-17T02:52:18.590Z,83.57
2022-10-17T02:54:50.036Z,83.42
2022-10-17T02:57:20.633Z,83.49
2022-10-17T02:59:48.849Z,83.80
2022-10-17T03:02:16.916Z,83.85
2022-10-17T03:04:48.228Z,84.27
2022-10-17T03:07:17.226Z,83.82
2022-10-17T03:09:45.307Z,84.03
2022-10-17T03:12:13.459Z,84.46
2022-10-17T03:14:42.057Z,84.47
2022-10-17T03:17:10.143Z,84.63
2022-10-17T03:19:38.201Z,84.91
2022-10-17T03:22:07.596Z,85.10
2022-10-17T03:24:36.740Z,85.50
2022-10-17T03:27:05.146Z,85.27
2022-10-17T03:29:33.416Z,85.80
2022-10-17T03:32:01.978Z,85.78
2022-10-17T03:34:30.016Z,85.68
2022-10-17T03:36:58.034Z,85.95
2022-10-17T03:39:30.003Z,86.12
2022-10-17T03:42:05.293Z,86.80
2022-10-17T03:44:33.418Z,86.99
2022-10-17T03:47:01.402Z,87.28
2022-10-17T03:49:29.479Z,87.77
2022-10-17T03:51:57.600Z,88.28
2022-10-17T03:54:29.190Z,87.95
2022-10-17T03:59:30.238Z,88.14
2022-10-17T04:02:06.217Z,88.27
2022-10-17T04:04:34.170Z,88.05
2022-10-17T04:07:02.171Z,88.13
2022-10-17T04:09:31.577Z,87.99
2022-10-17T04:12:05.282Z,87.83
2022-10-17T04:14:34.149Z,88.03
2022-10-17T04:17:02.975Z,87.71
2022-10-17T04:19:31.698Z,88.03
2022-10-17T04:21:59.701Z,88.18
2022-10-17T04:24:30.989Z,88.29
2022-10-17T04:27:05.520Z,88.04
2022-10-17T04:29:38.030Z,88.31
2022-10-17T04:32:32.196Z,88.05
2022-10-17T04:35:05.028Z,87.96
2022-10-17T04:37:33.585Z,87.64
2022-10-17T04:40:10.494Z,87.48
2022-10-17T04:42:38.771Z,87.93
2022-10-17T04:45:07.992Z,87.81
2022-10-17T04:47:37.693Z,87.63
2022-10-17T04:50:07.047Z,87.85
2022-10-17T04:52:37.529Z,87.40
2022-10-17T04:55:06.314Z,87.79
2022-10-17T04:57:37.014Z,88.15
2022-10-17T05:00:15.774Z,88.47
2022-10-17T05:03:06.968Z,88.47
2022-10-17T05:05:38.615Z,88.34
2022-10-17T05:08:06.741Z,88.27
2022-10-17T05:10:37.683Z,88.28
2022-10-17T05:13:08.641Z,87.44
2022-10-17T05:15:38.010Z,87.98
2022-10-17T05:18:06.932Z,88.37
2022-10-17T05:20:35.672Z,88.15
2022-10-17T05:23:03.839Z,87.92
2022-10-17T05:25:36.707Z,87.91
2022-10-17T05:28:05.040Z,88.16
2022-10-17T05:30:37.535Z,88.00
2022-10-17T05:33:08.107Z,87.94
2022-10-17T05:35:36.284Z,88.07
2022-10-17T05:38:04.394Z,88.34
2022-10-17T05:40:35.398Z,88.10
2022-10-17T05:43:04.012Z,88.48
2022-10-17T05:45:32.330Z,88.78
2022-10-17T05:48:02.661Z,88.68
2022-10-17T05:50:31.676Z,88.71
2022-10-17T05:53:07.895Z,88.64
2022-10-17T05:55:41.189Z,88.49
2022-10-17T05:58:11.762Z,88.56
2022-10-17T06:00:48.982Z,88.32
2022-10-17T06:03:18.860Z,88.83
2022-10-17T06:05:48.468Z,88.55
2022-10-17T06:08:16.928Z,88.54
2022-10-17T06:10:48.834Z,88.77
2022-10-17T06:13:17.271Z,89.15
2022-10-17T06:15:48.465Z,89.29
2022-10-17T06:18:18.242Z,88.98
2022-10-17T06:20:46.290Z,89.09
2022-10-17T06:23:16.715Z,89.01
2022-10-17T06:25:54.751Z,89.12
2022-10-17T06:28:22.811Z,89.46
2022-10-17T06:30:50.853Z,89.75
2022-10-17T06:33:20.863Z,89.85
2022-10-17T06:35:52.379Z,89.52
2022-10-17T06:38:21.167Z,89.49
2022-10-17T06:40:51.526Z,89.31
2022-10-17T06:43:25.601Z,89.97
2022-10-17T06:46:16.048Z,90.09
2022-10-17T06:48:56.744Z,90.01
2022-10-17T06:51:38.592Z,90.11
2022-10-17T06:54:09.457Z,89.78
2022-10-17T06:56:37.448Z,90.12
2022-10-17T06:59:20.426Z,89.96
2022-10-17T07:02:02.088Z,90.16
2022-10-17T07:04:32.456Z,90.39
2022-10-17T07:07:03.018Z,90.40
2022-10-17T07:09:32.950Z,90.45
2022-10-17T07:12:01.027Z,90.37
2022-10-17T07:14:32.105Z,90.66
2022-10-17T07:17:00.949Z,90.69
2022-10-17T07:19:32.522Z,90.46
2022-10-17T07:22:00.893Z,90.96
2022-10-17T07:24:29.216Z,91.18
2022-10-17T07:27:04.354Z,91.56
2022-10-17T07:29:32.783Z,91.27
2022-10-17T07:32:12.983Z,91.19
2022-10-17T07:34:43.109Z,91.38
2022-10-17T07:37:12.056Z,91.19
2022-10-17T07:39:45.533Z,91.31
2022-10-17T07:42:14.575Z,91.22
2022-10-17T07:44:42.739Z,91.04
2022-10-17T07:47:11.459Z,90.96
2022-10-17T07:49:42.491Z,91.27
2022-10-17T07:52:12.497Z,91.20
2022-10-17T07:54:40.610Z,91.31
2022-10-17T07:57:09.140Z,91.15
2022-10-17T07:59:39.273Z,90.96
2022-10-17T08:02:08.497Z,91.35
2022-10-17T08:04:37.361Z,90.98
2022-10-17T08:07:19.587Z,91.01
2022-10-17T08:09:49.315Z,91.33
2022-10-17T08:12:17.781Z,91.29
2022-10-17T08:14:45.785Z,91.37
2022-10-17T08:17:13.776Z,91.73
2022-10-17T08:19:42.160Z,91.25
2022-10-17T08:22:10.458Z,91.59
2022-10-17T08:24:38.424Z,90.98
2022-10-17T08:27:11.490Z,91.34
2022-10-17T08:29:39.706Z,90.84
2022-10-17T08:32:09.973Z,90.56
2022-10-17T08:34:38.267Z,90.46
2022-10-17T08:37:06.676Z,90.22
2022-10-17T08:39:34.696Z,89.96
2022-10-17T08:42:17.423Z,90.17
2022-10-17T08:44:52.792Z,89.74
2022-10-17T08:47:27.338Z,89.27
2022-10-17T08:49:58.207Z,89.12
2022-10-17T08:52:39.390Z,89.18
2022-10-17T08:55:15.005Z,89.54
2022-10-17T08:57:44.446Z,88.90
2022-10-17T09:00:16.942Z,89.11
2022-10-17T09:02:55.601Z,89.26
2022-10-17T09:05:32.107Z,88.65
2022-10-17T09:08:08.336Z,88.44
2022-10-17T09:10:45.712Z,88.52
2022-10-17T09:13:24.602Z,88.35
2022-10-17T09:16:05.281Z,87.96
2022-10-17T09:18:35.174Z,87.88
2022-10-17T09:21:11.683Z,87.71
2022-10-17T09:23:43.668Z,87.29
2022-10-17T09:26:12.500Z,87.55
2022-10-17T09:28:43.320Z,86.62
2022-10-17T09:31:24.207Z,85.92
2022-10-17T09:33:54.653Z,85.64
2022-10-17T09:36:24.612Z,85.21
2022-10-17T09:38:54.706Z,83.95
2022-10-17T09:41:45.511Z,83.89
2022-10-17T09:44:18.149Z,83.43
2022-10-17T09:46:53.466Z,83.22
2022-10-17T09:49:28.078Z,83.02
2022-10-17T09:51:56.299Z,83.32
2022-10-17T09:54:26.750Z,83.61
2022-10-17T09:57:02.644Z,83.67
2022-10-17T09:59:37.679Z,83.28
2022-10-17T10:02:20.997Z,82.39
2022-10-17T10:05:04.204Z,81.85
2022-10-17T10:08:15.537Z,81.97
2022-10-17T10:10:44.157Z,82.24
2022-10-17T10:13:20.360Z,82.68
2022-10-17T10:15:51.287Z,82.47
2022-10-17T10:21:07.307Z,82.53
2022-10-17T10:23:39.955Z,82.33
2022-10-17T10:26:22.286Z,82.46
2022-10-17T10:28:56.870Z,81.62
2022-10-17T10:31:32.104Z,81.94
2022-10-17T10:34:02.249Z,80.87
2022-10-17T10:36:47.849Z,80.44
2022-10-17T10:39:34.070Z,80.18
2022-10-17T10:42:03.252Z,80.10
2022-10-17T10:44:33.697Z,79.03
2022-10-17T10:47:18.167Z,78.49
2022-10-17T10:49:46.660Z,78.60
2022-10-17T10:52:25.545Z,77.45
2022-10-17T10:54:59.096Z,76.90
2022-10-17T10:57:30.671Z,77.24
2022-10-17T11:00:03.140Z,76.74
2022-10-17T11:02:38.727Z,76.19
2022-10-17T11:05:13.507Z,75.65
2022-10-17T11:07:44.632Z,75.38
2022-10-17T11:10:16.039Z,75.14
2022-10-17T11:12:46.512Z,75.06
2022-10-17T11:15:21.179Z,74.03
2022-10-17T11:17:57.908Z,74.33
2022-10-17T11:20:34.102Z,74.85
2022-10-17T11:23:11.165Z,71.93
2022-10-17T11:25:40.100Z,72.66
2022-10-17T11:28:14.403Z,72.75
2022-10-17T11:30:55.748Z,72.91
2022-10-17T11:33:29.654Z,72.84
2022-10-17T11:36:03.128Z,71.98
2022-10-17T11:38:39.735Z,71.92
2022-10-17T11:41:10.545Z,73.33
2022-10-17T11:43:41.876Z,73.07
2022-10-17T11:46:15.579Z,71.75
2022-10-17T11:48:59.629Z,72.16
2022-10-17T11:54:19.400Z,71.97
2022-10-17T11:57:10.739Z,70.80
2022-10-17T12:00:09.302Z,71.10
2022-10-17T12:02:48.688Z,69.33
2022-10-17T12:05:24.675Z,70.34
2022-10-17T12:07:57.811Z,70.29
2022-10-17T12:10:32.613Z,70.87
2022-10-17T12:13:51.801Z,69.89
2022-10-17T12:16:49.698Z,69.04
2022-10-17T12:19:34.992Z,69.32
2022-10-17T12:22:19.838Z,69.27
2022-10-17T12:24:56.044Z,68.73
2022-10-17T12:27:36.021Z,68.74
2022-10-17T12:30:07.293Z,69.62
2022-10-17T12:33:00.426Z,69.08
2022-10-17T12:35:25.886Z,67.42
2022-10-17T12:38:20.530Z,68.65
2022-10-17T12:41:06.803Z,67.85
2022-10-17T12:43:58.776Z,68.75
2022-10-17T12:46:51.150Z,67.52
2022-10-17T12:49:40.425Z,68.13
2022-10-17T12:52:22.108Z,68.37
2022-10-17T12:55:00.507Z,68.95
2022-10-17T12:57:43.896Z,67.26
2022-10-17T13:00:20.938Z,67.42
2022-10-17T13:02:49.756Z,66.57
2022-10-17T13:05:29.921Z,67.17
2022-10-17T13:08:00.163Z,66.87
2022-10-17T13:10:32.609Z,67.52
2022-10-17T13:13:07.188Z,67.21
2022-10-17T13:15:35.510Z,67.58
2022-10-17T13:18:03.632Z,67.15
2022-10-17T13:20:32.476Z,66.27
2022-10-17T13:23:00.827Z,66.77
2022-10-17T13:25:30.425Z,67.09
2022-10-17T13:28:13.827Z,66.38
2022-10-17T13:30:49.466Z,67.72
2022-10-17T13:33:29.016Z,66.97
2022-10-17T13:36:22.036Z,67.10
2022-10-17T13:38:50.029Z,66.31
2022-10-17T13:41:35.483Z,65.20
2022-10-17T13:44:05.727Z,66.73
2022-10-17T13:46:38.354Z,66.51
2022-10-17T13:49:12.840Z,64.54
2022-10-17T13:51:44.499Z,66.61
2022-10-17T13:54:40.040Z,65.38
2022-10-17T13:57:19.843Z,64.63
2022-10-17T13:59:49.548Z,63.82
2022-10-17T14:02:19.169Z,64.29
2022-10-17T14:08:09.386Z,64.99
2022-10-17T14:10:53.134Z,62.62
2022-10-17T14:13:24.221Z,62.37
2022-10-17T14:15:52.734Z,64.77
2022-10-17T14:18:22.213Z,63.86
2022-10-17T14:21:33.979Z,63.56
2022-10-17T14:23:41.833Z,63.89
2022-10-17T14:26:15.747Z,63.14
2022-10-17T14:28:47.509Z,62.49
2022-10-17T14:31:30.821Z,65.00
2022-10-17T14:33:59.092Z,64.26
2022-10-17T14:36:36.271Z,64.16
2022-10-17T14:39:08.561Z,64.08
2022-10-17T14:41:43.607Z,65.01
2022-10-17T14:44:21.121Z,63.82
2022-10-17T14:46:52.092Z,64.35
2022-10-17T14:49:25.205Z,63.06
2022-10-17T14:52:30.846Z,63.85
2022-10-17T14:55:00.822Z,63.98
2022-10-17T14:57:40.564Z,63.13
2022-10-17T15:00:14.684Z,62.88
2022-10-17T15:02:42.758Z,64.06
2022-10-17T15:05:13.420Z,64.25
2022-10-17T15:07:42.036Z,65.62
2022-10-17T15:10:24.894Z,62.97
2022-10-17T15:12:59.202Z,64.56
2022-10-17T15:15:34.025Z,64.67
2022-10-17T15:18:02.309Z,64.14
2022-10-17T15:20:30.988Z,64.40
2022-10-17T15:23:00.499Z,64.80
2022-10-17T15:25:29.089Z,65.38
2022-10-17T15:27:57.862Z,63.69
2022-10-17T15:30:29.104Z,65.07
2022-10-17T15:32:59.007Z,64.45
2022-10-17T15:35:27.681Z,64.65
2022-10-17T15:37:56.181Z,64.88
2022-10-17T15:40:26.273Z,65.69
2022-10-17T15:42:54.299Z,65.54
2022-10-17T15:45:22.804Z,65.70
2022-10-17T15:47:52.748Z,66.34
2022-10-17T15:50:22.790Z,65.55
2022-10-17T15:52:52.238Z,65.66
2022-10-17T15:55:20.754Z,65.74
2022-10-17T15:57:49.571Z,65.67
2022-10-17T16:01:32.225Z,65.86
2022-10-17T16:04:00.232Z,65.98
2022-10-17T16:06:29.686Z,65.92
2022-10-17T16:08:57.669Z,66.07
2022-10-17T16:11:29.781Z,66.46
2022-10-17T16:14:00.023Z,66.46
2022-10-17T16:16:28.306Z,66.80
2022-10-17T16:18:56.359Z,66.56
2022-10-17T16:21:26.554Z,66.96
2022-10-17T16:23:57.167Z,67.01
2022-10-17T16:26:25.499Z,66.90
2022-10-17T16:28:54.974Z,67.45
2022-10-17T16:31:24.678Z,67.62
2022-10-17T16:33:54.141Z,68.01
2022-10-17T16:36:22.208Z,68.22
2022-10-17T16:38:51.362Z,68.31
2022-10-17T16:41:25.945Z,68.69
2022-10-17T16:43:56.277Z,68.82
2022-10-17T16:46:25.427Z,69.30
2022-10-17T16:48:53.943Z,69.62
2022-10-17T16:51:22.188Z,69.87
2022-10-17T16:53:52.820Z,70.27
2022-10-17T16:56:22.551Z,70.62
2022-10-17T16:58:52.432Z,71.05
2022-10-17T17:01:23.085Z,71.00
2022-10-17T17:03:51.601Z,71.12
2022-10-17T17:06:21.611Z,71.49
2022-10-17T17:08:49.774Z,71.96
2022-10-17T17:11:19.905Z,71.53
2022-10-17T17:13:47.968Z,71.97
2022-10-17T17:16:20.070Z,71.94
2022-10-17T17:18:49.239Z,72.20
2022-10-17T17:21:17.214Z,72.61
2022-10-17T17:23:45.190Z,72.63
2022-10-17T17:26:18.183Z,72.29
2022-10-17T17:28:46.686Z,72.65
2022-10-17T17:31:17.664Z,72.59
2022-10-17T17:33:47.012Z,72.90
2022-10-17T17:36:18.434Z,72.88
2022-10-17T17:38:46.869Z,73.31
2022-10-17T17:41:16.090Z,73.38
2022-10-17T17:43:45.142Z,73.66
2022-10-17T17:46:13.442Z,73.54
2022-10-17T17:48:43.824Z,73.74
2022-10-17T17:51:13.427Z,73.94
2022-10-17T17:53:41.548Z,74.21
2022-10-17T17:56:14.181Z,74.45
2022-10-17T17:58:43.248Z,74.69
2022-10-17T18:01:14.972Z,74.90
2022-10-17T18:03:44.612Z,75.20
2022-10-17T18:06:13.206Z,75.04
2022-10-17T18:08:41.236Z,76.61
2022-10-17T18:11:11.086Z,76.50
2022-10-17T18:13:39.270Z,76.33
2022-10-17T18:16:13.452Z,76.10
2022-10-17T18:18:42.337Z,75.83
2022-10-17T18:21:12.831Z,75.92
2022-10-17T18:23:41.165Z,75.85
2022-10-17T18:26:09.457Z,75.95
2022-10-17T18:28:38.321Z,76.11
2022-10-17T18:31:07.523Z,76.33
2022-10-17T18:33:35.780Z,76.54
2022-10-17T18:36:07.114Z,76.76
2022-10-17T18:38:37.285Z,76.61
2022-10-17T18:41:08.313Z,76.76
2022-10-17T18:43:36.992Z,76.74
2022-10-17T18:46:10.852Z,76.69
2022-10-17T18:48:42.757Z,76.64
2022-10-17T18:51:11.166Z,76.62
2022-10-17T18:53:41.937Z,76.63
2022-10-17T18:56:09.970Z,76.71
2022-10-17T18:58:38.094Z,76.72
2022-10-17T19:01:07.326Z,76.83
2022-10-17T19:03:35.315Z,77.06
2022-10-17T19:06:03.839Z,76.97
2022-10-17T19:08:31.844Z,77.30
2022-10-17T19:11:06.193Z,77.14
2022-10-17T19:13:34.327Z,77.44
2022-10-17T19:16:06.402Z,77.38
2022-10-17T19:18:34.854Z,77.79
2022-10-17T19:21:03.991Z,77.63
2022-10-17T19:23:32.187Z,77.17
2022-10-17T19:26:04.260Z,77.46
2022-10-17T19:28:32.778Z,77.75
2022-10-17T19:31:00.711Z,77.78
2022-10-17T19:36:02.871Z,77.65
2022-10-17T19:38:31.037Z,78.08
2022-10-17T19:43:29.398Z,78.03
2022-10-17T19:45:58.612Z,78.01
2022-10-17T19:48:27.251Z,78.15
2022-10-17T19:50:55.375Z,78.38
2022-10-17T19:53:24.238Z,78.20
2022-10-17T19:55:52.343Z,78.25
2022-10-17T19:58:20.907Z,78.73
2022-10-17T20:00:51.598Z,78.75
2022-10-17T20:03:19.961Z,78.62
2022-10-17T20:05:48.049Z,79.00
2022-10-17T20:08:16.466Z,78.53
2022-10-17T20:10:44.764Z,78.74
2022-10-17T20:13:12.775Z,78.93
2022-10-17T20:15:41.224Z,78.53
2022-10-17T20:18:10.761Z,79.17
2022-10-17T20:20:39.083Z,79.36
2022-10-17T20:23:07.040Z,78.92
2022-10-17T20:25:38.104Z,79.45
2022-10-17T20:28:06.378Z,79.39
2022-10-17T20:30:34.387Z,79.22
2022-10-17T20:33:02.367Z,79.27
2022-10-17T20:35:31.766Z,80.01
2022-10-17T20:37:59.789Z,79.42
2022-10-17T20:40:34.988Z,79.34
2022-10-17T20:43:03.807Z,79.36
2022-10-17T20:45:44.042Z,80.19
2022-10-17T20:48:19.950Z,80.01
2022-10-17T20:50:49.644Z,79.53
2022-10-17T20:53:36.058Z,79.65
2022-10-17T20:56:07.719Z,80.22
2022-10-17T20:58:35.872Z,80.00
2022-10-17T21:01:08.457Z,80.00
2022-10-17T21:03:39.755Z,80.13
2022-10-17T21:06:11.879Z,80.48
2022-10-17T21:08:40.098Z,80.41
2022-10-17T21:11:10.040Z,80.55
2022-10-17T21:13:38.157Z,80.35
2022-10-17T21:16:08.040Z,80.27
2022-10-17T21:18:36.222Z,80.29
